Time;durP1;ratioP1;P1;durP2;ratioP2;P2;SDS_P1;SDS_P2;PMS_P1;PMS_P2;Temp;Humidity;BMP_temperature;BMP_pressure;BME280_temperature;BME280_humidity;BME280_pressure;Samples;Min_cycle;Max_cycle;Signal;HPM_P1;HPM_P2
2021/05/28 00:01:27;;;;;;;9.70;5.47;;;;;;;;;;143721;582;46020;-58
2021/05/28 00:03:53;;;;;;;12.77;6.65;;;;;;;;;;143717;589;46044;-57
2021/05/28 00:06:20;;;;;;;11.68;5.82;;;;;;;;;;143719;565;46021;-57
2021/05/28 00:08:47;;;;;;;17.40;6.72;;;;;;;;;;143721;571;46020;-58
2021/05/28 00:11:14;;;;;;;11.93;7.07;;;;;;;;;;143722;594;46021;-58
2021/05/28 00:13:41;;;;;;;10.27;6.40;;;;;;;;;;143715;579;46023;-57
2021/05/28 00:16:09;;;;;;;9.02;6.15;;;;;;;;;;143718;607;46020;-57
2021/05/28 00:18:36;;;;;;;9.80;6.68;;;;;;;;;;143724;589;46020;-57
2021/05/28 00:21:03;;;;;;;12.30;6.35;;;;;;;;;;143723;566;46021;-57
2021/05/28 00:23:30;;;;;;;11.73;7.20;;;;;;;;;;143723;564;46051;-57
2021/05/28 00:25:57;;;;;;;9.48;6.25;;;;;;;;;;143719;640;46021;-57
2021/05/28 00:28:24;;;;;;;9.68;6.07;;;;;;;;;;143727;585;46021;-58
2021/05/28 00:30:51;;;;;;;10.10;5.95;;;;;;;;;;143723;646;46020;-57
2021/05/28 00:33:18;;;;;;;10.45;6.25;;;;;;;;;;143723;591;46021;-58
2021/05/28 00:35:46;;;;;;;11.52;6.15;;;;;;;;;;143718;674;46021;-57
2021/05/28 00:38:13;;;;;;;10.38;6.57;;;;;;;;;;143720;579;46020;-57
2021/05/28 00:40:40;;;;;;;9.70;5.60;;;;;;;;;;143723;587;46021;-58
2021/05/28 00:43:07;;;;;;;9.85;6.20;;;;;;;;;;143722;599;46052;-57
2021/05/28 00:45:33;;;;;;;12.37;7.05;;;;;;;;;;143717;609;46020;-58
2021/05/28 00:48:01;;;;;;;10.77;7.03;;;;;;;;;;143724;612;46020;-58
2021/05/28 00:50:29;;;;;;;13.18;7.07;;;;;;;;;;143722;575;46021;-57
2021/05/28 00:52:58;;;;;;;12.82;7.78;;;;;;;;;;143723;610;46020;-58
2021/05/28 00:55:26;;;;;;;7.68;6.15;;;;;;;;;;143718;589;46021;-57
2021/05/28 00:57:55;;;;;;;9.70;7.68;;;;;;;;;;143726;579;46021;-58
2021/05/28 01:00:25;;;;;;;9.40;6.87;;;;;;;;;;143724;581;46020;-58
2021/05/28 01:02:53;;;;;;;8.07;7.05;;;;;;;;;;143714;564;46051;-58
2021/05/28 01:05:20;;;;;;;11.88;6.78;;;;;;;;;;143715;577;46918;-58
2021/05/28 01:07:48;;;;;;;8.40;6.50;;;;;;;;;;143721;596;46020;-57
2021/05/28 01:10:15;;;;;;;10.32;7.05;;;;;;;;;;143721;581;46020;-58
2021/05/28 01:12:43;;;;;;;19.83;6.45;;;;;;;;;;143721;564;46023;-58
2021/05/28 01:15:11;;;;;;;7.55;5.95;;;;;;;;;;143718;663;46020;-57
2021/05/28 01:17:38;;;;;;;8.77;6.05;;;;;;;;;;143725;614;46020;-57
2021/05/28 01:20:06;;;;;;;9.95;6.70;;;;;;;;;;143723;575;46021;-58
2021/05/28 01:22:34;;;;;;;8.38;6.20;;;;;;;;;;143720;686;47020;-58
2021/05/28 01:25:01;;;;;;;11.85;6.97;;;;;;;;;;143717;646;46020;-57
2021/05/28 01:27:29;;;;;;;11.35;6.53;;;;;;;;;;143717;604;46021;-57
2021/05/28 01:29:56;;;;;;;9.93;6.25;;;;;;;;;;143723;589;46020;-57
2021/05/28 01:32:23;;;;;;;8.52;6.05;;;;;;;;;;143724;704;46022;-57
2021/05/28 01:34:50;;;;;;;9.18;6.07;;;;;;;;;;143719;622;46021;-58
2021/05/28 01:37:18;;;;;;;9.32;6.00;;;;;;;;;;143723;582;46020;-57
2021/05/28 01:39:50;;;;;;;11.15;6.93;;;;;;;;;;143721;603;46030;-58
2021/05/28 01:42:17;;;;;;;10.90;8.93;;;;;;;;;;143723;600;46023;-57
2021/05/28 01:44:45;;;;;;;11.18;7.18;;;;;;;;;;143718;580;46020;-57
2021/05/28 01:47:13;;;;;;;9.55;6.60;;;;;;;;;;143723;579;46020;-58
2021/05/28 01:49:41;;;;;;;12.20;8.00;;;;;;;;;;143719;570;46021;-57
2021/05/28 01:52:08;;;;;;;12.85;9.68;;;;;;;;;;143717;569;46040;-57
2021/05/28 01:54:38;;;;;;;9.77;7.12;;;;;;;;;;143722;581;46021;-58
2021/05/28 01:57:06;;;;;;;13.95;8.40;;;;;;;;;;143720;604;46021;-57
2021/05/28 01:59:33;;;;;;;10.40;6.95;;;;;;;;;;143721;582;46020;-58
2021/05/28 02:02:01;;;;;;;13.60;8.10;;;;;;;;;;143723;579;46022;-57
2021/05/28 02:04:28;;;;;;;10.25;6.80;;;;;;;;;;143717;569;46021;-58
2021/05/28 02:06:56;;;;;;;14.32;8.73;;;;;;;;;;143723;653;46020;-57
2021/05/28 02:09:23;;;;;;;11.43;6.70;;;;;;;;;;143723;700;46020;-57
2021/05/28 02:11:50;;;;;;;9.98;7.18;;;;;;;;;;143724;643;46021;-57
2021/05/28 02:14:17;;;;;;;9.20;6.15;;;;;;;;;;143718;579;46020;-57
2021/05/28 02:16:44;;;;;;;11.07;7.15;;;;;;;;;;143720;592;46020;-57
2021/05/28 02:19:11;;;;;;;8.93;5.85;;;;;;;;;;143722;577;46021;-57
2021/05/28 02:21:38;;;;;;;11.38;6.22;;;;;;;;;;143725;627;46022;-58
2021/05/28 02:24:11;;;;;;;10.55;6.43;;;;;;;;;;143718;565;46020;-58
2021/05/28 02:26:38;;;;;;;10.35;6.50;;;;;;;;;;143723;566;46021;-58
2021/05/28 02:29:05;;;;;;;7.18;5.90;;;;;;;;;;143723;623;46020;-58
2021/05/28 02:31:32;;;;;;;9.95;7.35;;;;;;;;;;143722;585;46022;-57
2021/05/28 02:33:59;;;;;;;13.77;7.12;;;;;;;;;;143720;575;46021;-58
2021/05/28 02:36:26;;;;;;;8.93;6.25;;;;;;;;;;143727;585;46020;-57
2021/05/28 02:38:53;;;;;;;8.30;6.00;;;;;;;;;;143723;602;46020;-57
2021/05/28 02:41:20;;;;;;;12.48;7.25;;;;;;;;;;143716;564;47021;-58
2021/05/28 02:43:48;;;;;;;16.08;7.55;;;;;;;;;;143719;712;46020;-58
2021/05/28 02:46:15;;;;;;;16.08;9.13;;;;;;;;;;143716;570;46020;-57
2021/05/28 02:48:42;;;;;;;10.18;7.10;;;;;;;;;;143724;593;46021;-57
2021/05/28 02:51:09;;;;;;;18.00;7.20;;;;;;;;;;143722;566;47032;-57
2021/05/28 02:53:36;;;;;;;12.02;6.93;;;;;;;;;;143719;588;46020;-57
2021/05/28 02:56:05;;;;;;;8.57;5.93;;;;;;;;;;143725;692;46021;-57
2021/05/28 02:58:32;;;;;;;12.80;7.03;;;;;;;;;;143722;591;46020;-58
2021/05/28 03:00:59;;;;;;;12.30;6.50;;;;;;;;;;143724;704;46022;-57
2021/05/28 03:03:26;;;;;;;9.07;6.03;;;;;;;;;;143718;566;46021;-57
2021/05/28 03:05:53;;;;;;;8.60;6.07;;;;;;;;;;143719;572;46020;-58
2021/05/28 03:08:20;;;;;;;9.25;6.30;;;;;;;;;;143724;611;47020;-57
2021/05/28 03:10:47;;;;;;;11.32;6.93;;;;;;;;;;143725;610;46051;-58
2021/05/28 03:13:15;;;;;;;13.43;7.47;;;;;;;;;;143720;577;46020;-59
2021/05/28 03:15:42;;;;;;;18.37;7.78;;;;;;;;;;143726;614;46020;-57
2021/05/28 03:18:16;;;;;;;20.20;9.73;;;;;;;;;;143723;567;46021;-57
2021/05/28 03:20:47;;;;;;;10.13;6.70;;;;;;;;;;143725;587;47022;-57
2021/05/28 03:23:16;;;;;;;10.32;7.47;;;;;;;;;;143721;572;46020;-57
2021/05/28 03:25:43;;;;;;;10.43;6.45;;;;;;;;;;143727;593;46020;-59
2021/05/28 03:28:11;;;;;;;17.58;8.55;;;;;;;;;;143724;569;46020;-58
2021/05/28 03:30:38;;;;;;;15.20;8.32;;;;;;;;;;143716;572;46022;-57
2021/05/28 03:33:06;;;;;;;18.95;8.38;;;;;;;;;;143721;588;46021;-57
2021/05/28 03:35:33;;;;;;;21.52;11.12;;;;;;;;;;143727;672;46021;-57
2021/05/28 03:38:01;;;;;;;21.70;11.38;;;;;;;;;;143724;578;46020;-58
2021/05/28 03:40:28;;;;;;;21.05;10.75;;;;;;;;;;143722;602;46022;-58
2021/05/28 03:42:55;;;;;;;19.42;14.02;;;;;;;;;;143718;572;46021;-57
2021/05/28 03:45:22;;;;;;;40.83;29.75;;;;;;;;;;143727;577;46020;-58
2021/05/28 03:47:50;;;;;;;20.62;16.37;;;;;;;;;;143721;694;46021;-57
2021/05/28 03:50:17;;;;;;;32.83;25.83;;;;;;;;;;143718;590;47020;-59
2021/05/28 03:52:44;;;;;;;27.58;24.60;;;;;;;;;;143718;569;46916;-58
2021/05/28 03:55:11;;;;;;;34.75;31.10;;;;;;;;;;143717;643;46021;-58
2021/05/28 03:57:38;;;;;;;21.58;19.25;;;;;;;;;;143723;587;46020;-59
2021/05/28 04:00:07;;;;;;;25.05;20.77;;;;;;;;;;143723;623;46022;-59
2021/05/28 04:02:34;;;;;;;29.70;20.60;;;;;;;;;;143719;583;46021;-58
2021/05/28 04:05:00;;;;;;;19.37;12.60;;;;;;;;;;143724;572;46020;-59
2021/05/28 04:07:28;;;;;;;14.50;10.82;;;;;;;;;;143722;589;46020;-60
2021/05/28 04:09:55;;;;;;;18.92;9.88;;;;;;;;;;143722;600;47022;-58
2021/05/28 04:12:21;;;;;;;20.55;11.98;;;;;;;;;;143720;744;46021;-59
2021/05/28 04:14:48;;;;;;;19.48;12.00;;;;;;;;;;143722;591;46020;-58
2021/05/28 04:17:16;;;;;;;16.98;11.00;;;;;;;;;;143721;570;46021;-59
2021/05/28 04:19:43;;;;;;;16.90;10.65;;;;;;;;;;143714;684;47020;-58
2021/05/28 04:22:10;;;;;;;19.02;9.35;;;;;;;;;;143721;645;46915;-59
2021/05/28 04:24:37;;;;;;;19.05;10.65;;;;;;;;;;143726;650;46021;-58
2021/05/28 04:27:05;;;;;;;15.60;9.77;;;;;;;;;;143721;573;46021;-59
2021/05/28 04:29:32;;;;;;;16.30;9.48;;;;;;;;;;143721;702;47020;-58
2021/05/28 04:31:59;;;;;;;17.55;9.35;;;;;;;;;;143719;583;46021;-59
2021/05/28 04:34:26;;;;;;;14.07;7.65;;;;;;;;;;143725;572;46021;-59
2021/05/28 04:36:53;;;;;;;14.05;7.47;;;;;;;;;;143722;591;46020;-59
2021/05/28 04:39:20;;;;;;;11.52;9.32;;;;;;;;;;143723;594;46022;-58
2021/05/28 04:41:47;;;;;;;10.05;6.68;;;;;;;;;;143720;586;46021;-58
2021/05/28 04:44:14;;;;;;;14.13;7.50;;;;;;;;;;143719;566;46020;-59
2021/05/28 04:46:41;;;;;;;15.70;7.43;;;;;;;;;;143725;570;46021;-59
2021/05/28 04:49:08;;;;;;;11.32;5.90;;;;;;;;;;143723;565;46023;-59
2021/05/28 04:51:38;;;;;;;10.13;7.35;;;;;;;;;;143722;564;46020;-58
2021/05/28 04:54:06;;;;;;;9.48;6.30;;;;;;;;;;143723;577;46026;-59
2021/05/28 04:56:34;;;;;;;9.55;5.85;;;;;;;;;;143725;633;46021;-59
2021/05/28 04:59:01;;;;;;;11.45;5.22;;;;;;;;;;143725;594;46022;-59
2021/05/28 05:01:29;;;;;;;10.32;6.90;;;;;;;;;;143721;608;46021;-59
2021/05/28 05:03:57;;;;;;;14.13;10.32;;;;;;;;;;143726;608;46021;-59
2021/05/28 05:06:24;;;;;;;15.70;10.40;;;;;;;;;;143724;580;46020;-59
2021/05/28 05:08:52;;;;;;;20.88;10.50;;;;;;;;;;143717;606;46022;-59
2021/05/28 05:11:19;;;;;;;14.20;8.45;;;;;;;;;;143719;588;46021;-58
2021/05/28 05:13:46;;;;;;;11.07;8.68;;;;;;;;;;143724;577;46020;-59
2021/05/28 05:16:14;;;;;;;14.60;11.15;;;;;;;;;;143725;570;46020;-58
2021/05/28 05:18:43;;;;;;;13.48;11.73;;;;;;;;;;143725;580;46023;-58
2021/05/28 05:21:12;;;;;;;13.30;8.70;;;;;;;;;;143721;651;46020;-57
2021/05/28 05:23:40;;;;;;;18.45;10.10;;;;;;;;;;143725;569;46020;-57
2021/05/28 05:26:08;;;;;;;18.37;9.95;;;;;;;;;;143725;577;46034;-56
2021/05/28 05:28:36;;;;;;;11.85;8.27;;;;;;;;;;143724;580;46032;-57
2021/05/28 05:31:04;;;;;;;14.90;5.70;;;;;;;;;;143723;611;46021;-57
2021/05/28 05:33:32;;;;;;;12.35;6.15;;;;;;;;;;143718;623;46021;-58
2021/05/28 05:36:00;;;;;;;10.38;6.12;;;;;;;;;;143721;593;46029;-59
2021/05/28 05:38:29;;;;;;;9.30;5.18;;;;;;;;;;143727;590;46022;-58
2021/05/28 05:40:56;;;;;;;8.80;5.85;;;;;;;;;;143727;595;46021;-58
2021/05/28 05:43:23;;;;;;;12.23;6.53;;;;;;;;;;143729;589;46020;-58
2021/05/28 05:45:50;;;;;;;10.38;6.07;;;;;;;;;;143726;585;46021;-58
2021/05/28 05:48:17;;;;;;;10.27;6.30;;;;;;;;;;143729;566;46023;-57
2021/05/28 05:50:44;;;;;;;9.13;6.30;;;;;;;;;;143723;602;48010;-58
2021/05/28 05:53:11;;;;;;;10.63;5.87;;;;;;;;;;143730;569;46020;-59
2021/05/28 05:55:38;;;;;;;9.32;5.65;;;;;;;;;;143726;592;46021;-60
2021/05/28 05:58:05;;;;;;;12.98;7.15;;;;;;;;;;143722;583;46022;-60
2021/05/28 06:00:32;;;;;;;14.13;7.70;;;;;;;;;;143727;582;46010;-60
2021/05/28 06:02:59;;;;;;;11.70;6.47;;;;;;;;;;143723;571;47021;-60
2021/05/28 06:05:26;;;;;;;11.73;5.37;;;;;;;;;;143725;596;46020;-60
2021/05/28 06:07:53;;;;;;;8.93;6.82;;;;;;;;;;143727;713;47037;-60
2021/05/28 06:10:20;;;;;;;11.10;6.68;;;;;;;;;;143726;695;46020;-60
2021/05/28 06:12:47;;;;;;;15.60;7.37;;;;;;;;;;143728;624;46020;-59
2021/05/28 06:15:14;;;;;;;10.13;7.70;;;;;;;;;;143727;585;46020;-58
2021/05/28 06:17:41;;;;;;;15.55;8.18;;;;;;;;;;143727;602;46023;-59
2021/05/28 06:20:08;;;;;;;15.27;7.65;;;;;;;;;;143725;605;46020;-59
2021/05/28 06:22:35;;;;;;;11.57;6.70;;;;;;;;;;143723;702;46020;-59
2021/05/28 06:25:03;;;;;;;13.93;6.70;;;;;;;;;;143727;587;46021;-59
2021/05/28 06:27:30;;;;;;;12.90;7.07;;;;;;;;;;143726;567;46022;-59
2021/05/28 06:29:58;;;;;;;14.70;8.43;;;;;;;;;;143726;609;46021;-57
2021/05/28 06:32:25;;;;;;;14.93;8.55;;;;;;;;;;143721;580;48021;-58
2021/05/28 06:34:51;;;;;;;17.50;7.35;;;;;;;;;;143727;634;46020;-58
2021/05/28 06:37:18;;;;;;;15.07;6.90;;;;;;;;;;143727;571;46022;-58
2021/05/28 06:39:45;;;;;;;15.98;6.20;;;;;;;;;;143727;669;46010;-58
2021/05/28 06:42:12;;;;;;;15.75;6.43;;;;;;;;;;143729;718;46020;-58
2021/05/28 06:44:39;;;;;;;15.57;6.37;;;;;;;;;;143727;664;46020;-59
2021/05/28 06:47:06;;;;;;;10.43;5.37;;;;;;;;;;143719;583;46023;-59
2021/05/28 06:49:33;;;;;;;10.23;5.43;;;;;;;;;;143726;651;46010;-59
2021/05/28 06:52:01;;;;;;;10.50;4.95;;;;;;;;;;143729;570;46020;-59
2021/05/28 06:54:29;;;;;;;13.40;5.60;;;;;;;;;;143724;576;46021;-59
2021/05/28 06:56:56;;;;;;;10.30;6.00;;;;;;;;;;143729;589;46023;-59
2021/05/28 06:59:23;;;;;;;9.63;5.05;;;;;;;;;;143726;739;47010;-59
2021/05/28 07:01:50;;;;;;;12.95;6.87;;;;;;;;;;143729;566;46020;-59
2021/05/28 07:04:17;;;;;;;14.70;5.50;;;;;;;;;;143728;674;46020;-59
2021/05/28 07:06:44;;;;;;;12.55;5.82;;;;;;;;;;143727;624;46044;-59
2021/05/28 07:09:11;;;;;;;15.90;5.50;;;;;;;;;;143727;586;46011;-59
2021/05/28 07:11:38;;;;;;;15.13;6.10;;;;;;;;;;143722;622;46020;-59
2021/05/28 07:14:05;;;;;;;10.15;4.70;;;;;;;;;;143727;582;46020;-59
2021/05/28 07:16:32;;;;;;;12.88;5.22;;;;;;;;;;143728;739;46022;-59
2021/05/28 07:18:59;;;;;;;11.63;5.22;;;;;;;;;;143726;595;46010;-59
2021/05/28 07:21:27;;;;;;;10.70;5.45;;;;;;;;;;143726;588;46020;-58
2021/05/28 07:23:54;;;;;;;18.23;5.87;;;;;;;;;;143727;606;46029;-58
2021/05/28 07:26:21;;;;;;;12.63;6.60;;;;;;;;;;143726;723;46052;-57
2021/05/28 07:28:48;;;;;;;20.37;5.40;;;;;;;;;;143726;600;46010;-58
2021/05/28 07:31:15;;;;;;;12.55;4.95;;;;;;;;;;143728;588;46020;-59
2021/05/28 07:33:42;;;;;;;10.00;5.93;;;;;;;;;;143726;579;46020;-58
2021/05/28 07:36:10;;;;;;;10.77;5.07;;;;;;;;;;143719;733;47020;-58
2021/05/28 07:38:37;;;;;;;17.15;5.75;;;;;;;;;;143725;565;46012;-58
2021/05/28 07:41:05;;;;;;;14.95;6.47;;;;;;;;;;143729;733;46020;-58
2021/05/28 07:43:33;;;;;;;9.75;5.10;;;;;;;;;;143728;586;46020;-58
2021/05/28 07:46:01;;;;;;;12.45;4.93;;;;;;;;;;143729;620;46022;-59
2021/05/28 07:48:28;;;;;;;10.60;4.62;;;;;;;;;;143724;651;46010;-59
2021/05/28 07:51:01;;;;;;;8.98;5.07;;;;;;;;;;143727;602;46020;-59
2021/05/28 07:53:29;;;;;;;7.55;4.40;;;;;;;;;;143725;610;46021;-60
2021/05/28 07:56:05;;;;;;;9.75;4.60;;;;;;;;;;143724;585;46022;-59
2021/05/28 07:58:33;;;;;;;14.68;5.12;;;;;;;;;;143725;569;46010;-59
2021/05/28 08:01:00;;;;;;;15.80;5.35;;;;;;;;;;143721;579;46020;-59
2021/05/28 08:03:27;;;;;;;16.02;4.57;;;;;;;;;;143726;614;46020;-59
2021/05/28 08:05:55;;;;;;;14.87;5.10;;;;;;;;;;143724;575;46022;-58
2021/05/28 08:08:26;;;;;;;12.48;5.22;;;;;;;;;;143725;596;46010;-59
2021/05/28 08:10:53;;;;;;;8.18;5.28;;;;;;;;;;143726;573;46020;-58
2021/05/28 08:13:20;;;;;;;9.80;5.68;;;;;;;;;;143727;593;46020;-57
2021/05/28 08:15:47;;;;;;;13.27;5.30;;;;;;;;;;143726;640;47022;-58
2021/05/28 08:18:14;;;;;;;13.27;5.40;;;;;;;;;;143725;577;46010;-57
2021/05/28 08:20:42;;;;;;;11.75;5.72;;;;;;;;;;143728;576;46020;-57
2021/05/28 08:23:09;;;;;;;9.20;5.55;;;;;;;;;;143728;583;46021;-56
2021/05/28 08:25:36;;;;;;;14.15;5.90;;;;;;;;;;143725;570;46022;-57
2021/05/28 08:28:03;;;;;;;10.98;5.82;;;;;;;;;;143725;596;46010;-58
2021/05/28 08:30:30;;;;;;;11.77;5.75;;;;;;;;;;143726;595;46020;-57
2021/05/28 08:32:57;;;;;;;15.10;5.57;;;;;;;;;;143725;586;46020;-56
2021/05/28 08:35:25;;;;;;;12.02;5.30;;;;;;;;;;143728;586;46022;-56
2021/05/28 08:37:52;;;;;;;9.35;4.97;;;;;;;;;;143726;623;46010;-56
2021/05/28 08:40:19;;;;;;;14.63;5.82;;;;;;;;;;143724;621;46020;-56
2021/05/28 08:42:47;;;;;;;15.63;5.40;;;;;;;;;;143725;579;46020;-56
2021/05/28 08:45:15;;;;;;;10.18;5.40;;;;;;;;;;143724;586;46022;-56
2021/05/28 08:47:43;;;;;;;15.05;5.47;;;;;;;;;;143725;600;46010;-56
2021/05/28 08:50:10;;;;;;;10.57;5.12;;;;;;;;;;143721;602;46020;-55
2021/05/28 08:52:38;;;;;;;17.02;5.60;;;;;;;;;;143727;624;46021;-56
2021/05/28 08:55:05;;;;;;;12.07;5.15;;;;;;;;;;143724;599;47040;-56
2021/05/28 08:57:32;;;;;;;10.75;5.03;;;;;;;;;;143725;620;46010;-56
2021/05/28 09:00:00;;;;;;;12.43;4.90;;;;;;;;;;143716;572;47010;-56
2021/05/28 09:02:40;;;;;;;9.60;4.90;;;;;;;;;;143725;627;46020;-56
2021/05/28 09:05:27;;;;;;;10.38;5.05;;;;;;;;;;143724;590;46022;-56
2021/05/28 09:08:01;;;;;;;12.88;5.00;;;;;;;;;;143724;578;46010;-55
2021/05/28 09:10:33;;;;;;;8.48;5.15;;;;;;;;;;143726;590;46020;-56
2021/05/28 09:13:21;;;;;;;7.85;5.50;;;;;;;;;;143724;564;46020;-56
2021/05/28 09:15:50;;;;;;;9.35;4.78;;;;;;;;;;143724;573;46023;-57
2021/05/28 09:18:17;;;;;;;12.52;4.72;;;;;;;;;;143723;569;47010;-57
2021/05/28 09:20:56;;;;;;;10.07;4.97;;;;;;;;;;143727;588;46020;-57
2021/05/28 09:23:24;;;;;;;12.18;5.30;;;;;;;;;;143728;595;46021;-57
2021/05/28 09:26:00;;;;;;;10.13;4.75;;;;;;;;;;143725;619;46052;-57
2021/05/28 09:28:29;;;;;;;9.32;4.40;;;;;;;;;;143724;580;46010;-57
2021/05/28 09:30:57;;;;;;;11.05;4.87;;;;;;;;;;143726;589;46021;-57
2021/05/28 09:33:25;;;;;;;13.20;5.50;;;;;;;;;;143726;582;46020;-57
2021/05/28 09:35:53;;;;;;;10.93;5.47;;;;;;;;;;143722;652;47020;-57
2021/05/28 09:38:25;;;;;;;13.80;5.05;;;;;;;;;;143724;612;46919;-57
2021/05/28 09:40:52;;;;;;;10.50;5.25;;;;;;;;;;143721;581;46020;-57
2021/05/28 09:43:24;;;;;;;9.70;4.60;;;;;;;;;;143726;618;46021;-58
2021/05/28 09:45:51;;;;;;;10.27;5.28;;;;;;;;;;143723;585;47021;-58
2021/05/28 09:48:25;;;;;;;11.60;5.18;;;;;;;;;;143725;569;46010;-57
2021/05/28 09:50:55;;;;;;;;;;;;;;;;;;143732;982;46020;-58
2021/05/28 09:53:33;;;;;;;17.73;5.20;;;;;;;;;;143731;618;46021;-58
2021/05/28 09:56:20;;;;;;;15.68;5.57;;;;;;;;;;143725;564;46022;-58
2021/05/28 09:59:05;;;;;;;10.90;5.72;;;;;;;;;;143723;606;46011;-58
2021/05/28 10:01:37;;;;;;;9.10;6.25;;;;;;;;;;143726;577;46020;-58
2021/05/28 10:04:12;;;;;;;11.48;5.85;;;;;;;;;;143725;583;46020;-58
2021/05/28 10:06:41;;;;;;;10.38;6.93;;;;;;;;;;143717;595;46022;-58
2021/05/28 10:09:12;;;;;;;10.65;7.15;;;;;;;;;;143720;606;48010;-58
2021/05/28 10:11:40;;;;;;;7.82;5.43;;;;;;;;;;143725;572;46020;-58
2021/05/28 10:14:08;;;;;;;9.63;5.47;;;;;;;;;;143726;587;46021;-58
2021/05/28 10:16:36;;;;;;;12.70;6.18;;;;;;;;;;143724;669;46023;-59
2021/05/28 10:19:04;;;;;;;11.65;5.85;;;;;;;;;;143722;611;46020;-58
2021/05/28 10:21:32;;;;;;;12.13;5.53;;;;;;;;;;143726;649;46020;-59
2021/05/28 10:23:59;;;;;;;12.82;6.03;;;;;;;;;;143726;591;46021;-59
2021/05/28 10:26:36;;;;;;;10.32;4.90;;;;;;;;;;143724;575;47038;-59
2021/05/28 10:29:06;;;;;;;13.65;5.10;;;;;;;;;;143724;615;47010;-59
2021/05/28 10:31:57;;;;;;;9.95;5.25;;;;;;;;;;143721;589;46021;-59
2021/05/28 10:34:31;;;;;;;15.95;4.93;;;;;;;;;;143725;610;46020;-59
2021/05/28 10:36:58;;;;;;;8.70;4.80;;;;;;;;;;143726;617;47021;-60
2021/05/28 10:39:27;;;;;;;10.18;5.65;;;;;;;;;;143724;609;47029;-60
2021/05/28 10:42:15;;;;;;;10.85;5.03;;;;;;;;;;143727;590;46020;-59
2021/05/28 10:44:45;;;;;;;7.93;4.57;;;;;;;;;;143724;599;46021;-60
2021/05/28 10:47:37;;;;;;;7.85;4.30;;;;;;;;;;143726;652;46022;-60
2021/05/28 10:50:05;;;;;;;9.20;4.55;;;;;;;;;;143726;609;46010;-60
2021/05/28 10:52:35;;;;;;;9.57;4.45;;;;;;;;;;143726;657;46021;-60
2021/05/28 10:55:11;;;;;;;9.48;4.82;;;;;;;;;;143726;604;46029;-59
2021/05/28 10:57:48;;;;;;;12.20;4.95;;;;;;;;;;143719;647;46043;-60
2021/05/28 11:00:32;;;;;;;8.65;4.28;;;;;;;;;;143724;580;46020;-61
2021/05/28 11:03:07;;;;;;;;;;;;;;;;;;143730;978;46020;-60
2021/05/28 11:05:46;;;;;;;7.80;4.93;;;;;;;;;;143726;655;50028;-60
2021/05/28 11:08:42;;;;;;;6.25;3.70;;;;;;;;;;143719;575;50026;-60
2021/05/28 11:11:29;;;;;;;8.20;4.43;;;;;;;;;;143725;585;46010;-60
2021/05/28 11:13:58;;;;;;;7.32;3.90;;;;;;;;;;143728;600;46020;-60
2021/05/28 11:16:26;;;;;;;9.10;4.40;;;;;;;;;;143728;602;46020;-60
2021/05/28 11:18:53;;;;;;;10.75;4.82;;;;;;;;;;143722;648;47020;-60
2021/05/28 11:21:24;;;;;;;9.90;5.70;;;;;;;;;;143722;600;46011;-61
2021/05/28 11:23:53;;;;;;;13.02;7.53;;;;;;;;;;143724;579;46020;-60
2021/05/28 11:26:27;;;;;;;17.60;10.13;;;;;;;;;;143726;585;46020;-60
2021/05/28 11:28:59;;;;;;;14.95;9.98;;;;;;;;;;143724;594;46022;-61
2021/05/28 11:31:29;;;;;;;13.90;10.82;;;;;;;;;;143724;573;46010;-61
2021/05/28 11:33:59;;;;;;;28.75;20.12;;;;;;;;;;143726;575;46020;-60
2021/05/28 11:36:50;;;;;;;34.10;25.67;;;;;;;;;;143720;591;51035;-60
2021/05/28 11:39:24;;;;;;;26.55;21.33;;;;;;;;;;143726;585;46024;-60
2021/05/28 11:41:57;;;;;;;24.12;18.83;;;;;;;;;;143723;599;46010;-61
2021/05/28 11:44:26;;;;;;;18.80;13.77;;;;;;;;;;143725;569;46021;-62
2021/05/28 11:46:53;;;;;;;16.17;10.65;;;;;;;;;;143726;612;46020;-60
2021/05/28 11:49:22;;;;;;;17.20;8.07;;;;;;;;;;143718;563;46022;-60
2021/05/28 11:52:05;;;;;;;16.60;8.05;;;;;;;;;;143724;590;46010;-61
2021/05/28 11:54:34;;;;;;;6.50;4.37;;;;;;;;;;143728;564;46020;-61
2021/05/28 11:57:06;;;;;;;10.88;5.10;;;;;;;;;;143726;629;46020;-61
2021/05/28 11:59:57;;;;;;;13.73;4.80;;;;;;;;;;143724;565;47020;-61
2021/05/28 12:02:48;;;;;;;11.57;4.50;;;;;;;;;;143724;591;46010;-61
2021/05/28 12:05:37;;;;;;;12.00;5.10;;;;;;;;;;143727;630;46020;-62
2021/05/28 12:08:22;;;;;;;10.93;4.40;;;;;;;;;;143726;569;46023;-62
2021/05/28 12:10:54;;;;;;;18.10;4.22;;;;;;;;;;143724;608;46022;-60
2021/05/28 12:13:25;;;;;;;11.50;5.15;;;;;;;;;;143729;639;46012;-60
2021/05/28 12:16:01;;;;;;;11.00;3.78;;;;;;;;;;143721;621;46020;-60
2021/05/28 12:18:33;;;;;;;8.65;4.00;;;;;;;;;;143726;600;46020;-60
2021/05/28 12:21:05;;;;;;;12.45;4.57;;;;;;;;;;143726;583;46022;-61
2021/05/28 12:23:50;;;;;;;7.87;4.53;;;;;;;;;;143725;631;46010;-61
2021/05/28 12:26:20;;;;;;;10.02;4.40;;;;;;;;;;143724;569;46020;-61
2021/05/28 12:29:08;;;;;;;8.95;4.00;;;;;;;;;;143726;618;46021;-61
2021/05/28 12:31:39;;;;;;;6.55;4.25;;;;;;;;;;143726;589;46020;-61
2021/05/28 12:34:13;;;;;;;8.35;4.45;;;;;;;;;;143725;703;46011;-61
2021/05/28 12:36:44;;;;;;;7.72;4.40;;;;;;;;;;143727;620;46021;-61
2021/05/28 12:39:16;;;;;;;7.43;3.70;;;;;;;;;;143726;586;46020;-61
2021/05/28 12:41:45;;;;;;;10.82;4.72;;;;;;;;;;143722;706;47021;-61
2021/05/28 12:44:20;;;;;;;9.10;4.20;;;;;;;;;;143724;707;46011;-60
2021/05/28 12:46:59;;;;;;;7.72;4.37;;;;;;;;;;143728;595;46020;-60
2021/05/28 12:49:34;;;;;;;9.95;3.65;;;;;;;;;;143724;595;46021;-61
2021/05/28 12:52:01;;;;;;;5.85;4.10;;;;;;;;;;143726;629;46023;-61
2021/05/28 12:54:30;;;;;;;8.73;3.90;;;;;;;;;;143727;573;46012;-60
2021/05/28 12:57:07;;;;;;;10.40;4.60;;;;;;;;;;143727;607;46020;-61
2021/05/28 12:59:40;;;;;;;8.75;4.15;;;;;;;;;;143728;571;46021;-62
2021/05/28 13:02:18;;;;;;;14.57;4.37;;;;;;;;;;143726;698;46022;-61
2021/05/28 13:04:56;;;;;;;7.32;3.80;;;;;;;;;;143724;565;46021;-60
2021/05/28 13:07:44;;;;;;;9.68;4.20;;;;;;;;;;143726;569;46021;-61
2021/05/28 13:10:18;;;;;;;6.90;3.72;;;;;;;;;;143723;600;46020;-61
2021/05/28 13:12:45;;;;;;;9.77;4.37;;;;;;;;;;143726;586;46051;-61
2021/05/28 13:15:12;;;;;;;12.02;4.30;;;;;;;;;;143724;564;46010;-61
2021/05/28 13:17:40;;;;;;;7.87;4.12;;;;;;;;;;143728;661;46020;-61
2021/05/28 13:20:17;;;;;;;8.48;4.18;;;;;;;;;;143725;689;46021;-61
2021/05/28 13:22:52;;;;;;;9.73;4.30;;;;;;;;;;143726;589;46039;-60
2021/05/28 13:25:28;;;;;;;8.30;4.50;;;;;;;;;;143724;569;46921;-61
2021/05/28 13:28:20;;;;;;;12.82;4.47;;;;;;;;;;143726;583;46021;-60
2021/05/28 13:30:54;;;;;;;7.45;4.22;;;;;;;;;;143725;570;46020;-60
2021/05/28 13:33:39;;;;;;;10.23;4.70;;;;;;;;;;143722;564;47020;-60
2021/05/28 13:36:17;;;;;;;6.47;4.03;;;;;;;;;;143725;579;46010;-61
2021/05/28 13:38:46;;;;;;;8.23;4.60;;;;;;;;;;143727;585;46020;-60
2021/05/28 13:41:16;;;;;;;7.03;4.50;;;;;;;;;;143725;636;46020;-60
2021/05/28 13:43:44;;;;;;;5.90;4.20;;;;;;;;;;143725;570;46023;-61
2021/05/28 13:46:12;;;;;;;7.43;4.10;;;;;;;;;;143725;668;46010;-61
2021/05/28 13:48:39;;;;;;;7.28;3.83;;;;;;;;;;143727;574;46020;-61
2021/05/28 13:51:08;;;;;;;10.50;4.30;;;;;;;;;;143726;668;46021;-62
2021/05/28 13:53:35;;;;;;;8.15;4.55;;;;;;;;;;143724;663;46022;-60
2021/05/28 13:56:04;;;;;;;14.60;4.75;;;;;;;;;;143726;577;46010;-62
2021/05/28 13:58:31;;;;;;;6.05;4.03;;;;;;;;;;143721;564;46021;-62
2021/05/28 14:00:58;;;;;;;8.07;3.95;;;;;;;;;;143726;573;46020;-61
2021/05/28 14:03:25;;;;;;;9.43;4.28;;;;;;;;;;143725;569;46022;-61
2021/05/28 14:05:53;;;;;;;5.50;4.07;;;;;;;;;;143726;569;46010;-61
2021/05/28 14:08:21;;;;;;;7.55;4.22;;;;;;;;;;143727;762;46020;-61
2021/05/28 14:10:50;;;;;;;9.85;4.62;;;;;;;;;;143727;580;46021;-61
2021/05/28 14:13:17;;;;;;;6.10;4.32;;;;;;;;;;143728;652;46023;-60
2021/05/28 14:15:44;;;;;;;6.22;4.53;;;;;;;;;;143725;569;46010;-61
2021/05/28 14:18:12;;;;;;;7.22;4.45;;;;;;;;;;143720;612;46021;-60
2021/05/28 14:20:40;;;;;;;6.82;4.20;;;;;;;;;;143726;570;46021;-61
2021/05/28 14:23:08;;;;;;;9.68;4.75;;;;;;;;;;143720;663;47020;-60
2021/05/28 14:25:36;;;;;;;11.82;4.87;;;;;;;;;;143726;645;46011;-61
2021/05/28 14:28:04;;;;;;;7.00;4.62;;;;;;;;;;143727;587;46021;-60
2021/05/28 14:30:32;;;;;;;9.05;4.43;;;;;;;;;;143726;583;46020;-62
2021/05/28 14:33:00;;;;;;;8.65;4.50;;;;;;;;;;143726;590;46022;-60
2021/05/28 14:35:27;;;;;;;11.00;4.65;;;;;;;;;;143726;611;46010;-60
2021/05/28 14:37:54;;;;;;;9.13;4.32;;;;;;;;;;143726;578;46913;-61
2021/05/28 14:40:22;;;;;;;6.07;4.37;;;;;;;;;;143725;585;46020;-60
2021/05/28 14:42:50;;;;;;;9.82;4.57;;;;;;;;;;143727;611;46023;-60
2021/05/28 14:45:18;;;;;;;9.98;4.47;;;;;;;;;;143724;587;46010;-60
2021/05/28 14:47:45;;;;;;;7.97;4.57;;;;;;;;;;143722;584;46020;-62